createdAt,value
2019-04-20T00:02:07.199Z,30.50
2019-04-20T00:04:34.226Z,30.44
2019-04-20T00:07:01.954Z,30.32
2019-04-20T00:09:31.765Z,30.29
2019-04-20T00:12:07.072Z,30.30
2019-04-20T00:14:30.974Z,30.24
2019-04-20T00:16:55.061Z,30.53
2019-04-20T00:19:31.377Z,30.75
2019-04-20T00:21:56.433Z,30.90
2019-04-20T00:24:24.851Z,31.11
2019-04-20T00:29:35.297Z,31.57
2019-04-20T00:31:58.352Z,31.59
2019-04-20T00:34:22.855Z,31.46
2019-04-20T00:36:43.372Z,31.32
2019-04-20T00:39:13.135Z,31.26
2019-04-20T00:41:43.796Z,31.20
2019-04-20T00:44:13.399Z,31.21
2019-04-20T00:46:51.245Z,31.19
2019-04-20T00:49:20.657Z,31.17
2019-04-20T00:51:54.669Z,31.12
2019-04-20T00:54:03.931Z,31.12
2019-04-20T00:56:31.485Z,31.04
2019-04-20T00:59:14.603Z,30.99
2019-04-20T01:01:47.663Z,30.94
2019-04-20T01:04:15.076Z,31.05
2019-04-20T01:06:42.420Z,31.25
2019-04-20T01:08:54.997Z,31.41
2019-04-20T01:11:27.031Z,31.41
2019-04-20T01:13:55.396Z,31.65
2019-04-20T01:16:29.556Z,32.01
2019-04-20T01:18:49.405Z,32.11
2019-04-20T01:21:21.589Z,32.03
2019-04-20T01:23:52.573Z,31.97
2019-04-20T01:26:17.317Z,32.23
2019-04-20T01:28:54.219Z,32.43
2019-04-20T01:31:22.104Z,32.64
2019-04-20T01:33:51.912Z,32.48
2019-04-20T01:36:29.267Z,32.26
2019-04-20T01:38:55.078Z,32.19
2019-04-20T01:41:05.524Z,32.16
2019-04-20T01:43:33.218Z,32.22
2019-04-20T01:46:08.190Z,32.13
2019-04-20T01:48:34.015Z,32.38
2019-04-20T01:51:07.343Z,32.70
2019-04-20T01:53:44.367Z,32.69
2019-04-20T01:56:13.986Z,32.52
2019-04-20T01:58:47.960Z,32.44
2019-04-20T02:00:55.653Z,32.40
2019-04-20T02:03:29.116Z,32.27
2019-04-20T02:05:55.636Z,32.13
2019-04-20T02:08:22.948Z,32.19
2019-04-20T02:10:53.666Z,32.09
2019-04-20T02:13:17.409Z,32.13
2019-04-20T02:15:48.599Z,32.15
2019-04-20T02:18:26.972Z,32.13
2019-04-20T02:20:59.867Z,32.13
2019-04-20T02:23:21.239Z,32.26
2019-04-20T02:25:39.708Z,32.51
2019-04-20T02:28:27.154Z,32.71
2019-04-20T02:31:15.587Z,32.95
2019-04-20T02:33:42.797Z,32.90
2019-04-20T02:36:12.799Z,32.87
2019-04-20T02:38:51.026Z,33.04
2019-04-20T02:41:21.459Z,33.11
2019-04-20T02:43:55.133Z,33.11
2019-04-20T02:48:31.692Z,32.97
2019-04-20T02:51:02.178Z,32.95
2019-04-20T02:53:39.010Z,33.25
2019-04-20T02:56:02.114Z,33.41
2019-04-20T02:58:23.564Z,33.57
2019-04-20T03:00:55.174Z,33.66
2019-04-20T03:03:03.484Z,33.76
2019-04-20T03:05:29.790Z,33.85
2019-04-20T03:08:08.752Z,33.95
2019-04-20T03:10:46.379Z,33.81
2019-04-20T03:13:08.599Z,33.83
2019-04-20T03:15:40.518Z,33.96
2019-04-20T03:18:03.585Z,34.20
2019-04-20T03:20:39.087Z,34.22
2019-04-20T03:23:17.719Z,34.11
2019-04-20T03:25:29.656Z,33.83
2019-04-20T03:28:01.729Z,33.56
2019-04-20T03:31:07.449Z,33.40
2019-04-20T03:33:24.101Z,33.31
2019-04-20T03:35:28.622Z,33.59
2019-04-20T03:37:54.722Z,33.94
2019-04-20T03:40:12.810Z,34.35
2019-04-20T03:42:29.080Z,34.69
2019-04-20T03:45:00.481Z,34.79
2019-04-20T03:47:36.980Z,34.81
2019-04-20T03:50:20.178Z,34.80
2019-04-20T03:52:37.696Z,34.79
2019-04-20T03:55:10.841Z,34.82
2019-04-20T03:57:40.909Z,34.76
2019-04-20T04:00:04.706Z,34.53
2019-04-20T04:02:49.309Z,34.30
2019-04-20T04:05:04.304Z,34.54
2019-04-20T04:07:22.832Z,34.73
2019-04-20T04:10:01.167Z,34.76
2019-04-20T04:12:20.312Z,34.61
2019-04-20T04:14:40.914Z,34.44
2019-04-20T04:17:12.163Z,34.36
2019-04-20T04:19:40.245Z,34.28
2019-04-20T04:22:19.346Z,34.34
2019-04-20T04:24:52.518Z,34.25
2019-04-20T04:27:25.629Z,34.05
2019-04-20T04:29:55.624Z,33.84
2019-04-20T04:32:33.092Z,33.76
2019-04-20T04:34:51.498Z,33.70
2019-04-20T04:37:16.489Z,33.72
2019-04-20T04:39:50.634Z,33.77
2019-04-20T04:42:25.105Z,33.62
2019-04-20T04:44:35.458Z,33.36
2019-04-20T04:46:56.754Z,33.10
2019-04-20T04:49:28.425Z,33.11
2019-04-20T04:51:58.575Z,33.32
2019-04-20T04:54:29.357Z,33.45
2019-04-20T04:56:46.754Z,33.37
2019-04-20T04:59:14.841Z,33.09
2019-04-20T05:01:45.248Z,33.14
2019-04-20T05:04:31.778Z,33.10
2019-04-20T05:06:55.845Z,33.05
2019-04-20T05:09:12.522Z,32.90
2019-04-20T05:11:38.484Z,32.96
2019-04-20T05:14:10.067Z,32.97
2019-04-20T05:16:49.923Z,32.90
2019-04-20T05:19:24.750Z,32.81
2019-04-20T05:22:01.185Z,32.79
2019-04-20T05:24:16.889Z,32.72
2019-04-20T05:26:53.134Z,32.68
2019-04-20T05:29:06.693Z,32.44
2019-04-20T05:31:34.000Z,32.20
2019-04-20T05:34:20.434Z,31.96
2019-04-20T05:36:42.662Z,31.61
2019-04-20T05:41:38.655Z,31.40
2019-04-20T05:44:04.746Z,31.30
2019-04-20T05:46:37.368Z,31.13
2019-04-20T05:49:10.029Z,31.00
2019-04-20T05:54:07.196Z,30.39
2019-04-20T05:56:40.260Z,30.13
2019-04-20T05:58:59.622Z,30.03
2019-04-20T06:01:34.419Z,29.82
2019-04-20T06:03:58.171Z,29.62
2019-04-20T06:06:32.840Z,29.44
2019-04-20T06:09:08.562Z,29.10
2019-04-20T06:11:30.344Z,28.88
2019-04-20T06:13:47.152Z,28.65
2019-04-20T06:16:25.224Z,28.48
2019-04-20T06:18:45.898Z,28.41
2019-04-20T06:21:35.378Z,28.30
2019-04-20T06:26:41.815Z,27.89
2019-04-20T06:28:42.914Z,27.79
2019-04-20T06:31:18.040Z,27.74
2019-04-20T06:34:00.281Z,27.52
2019-04-20T06:36:22.107Z,27.25
2019-04-20T06:38:57.498Z,27.03
2019-04-20T06:43:45.962Z,26.70
2019-04-20T06:46:09.874Z,26.60
2019-04-20T06:48:42.928Z,26.49
2019-04-20T06:51:03.542Z,26.33
2019-04-20T06:53:39.028Z,26.14
2019-04-20T06:56:05.322Z,26.04
2019-04-20T06:58:46.364Z,25.83
2019-04-20T07:01:03.695Z,25.71
2019-04-20T07:03:49.394Z,26.01
2019-04-20T07:06:06.630Z,25.97
2019-04-20T07:08:43.928Z,25.68
2019-04-20T07:10:59.392Z,25.31
2019-04-20T07:13:18.847Z,25.12
2019-04-20T07:15:46.272Z,24.86
2019-04-20T07:18:26.564Z,24.79
2019-04-20T07:20:57.359Z,24.18
2019-04-20T07:25:48.836Z,24.20
2019-04-20T07:28:24.749Z,24.03
2019-04-20T07:30:44.894Z,23.70
2019-04-20T07:33:18.616Z,23.79
2019-04-20T07:35:40.438Z,23.86
2019-04-20T07:40:39.757Z,23.70
2019-04-20T07:43:04.404Z,23.60
2019-04-20T07:45:34.887Z,23.53
2019-04-20T07:48:11.509Z,23.57
2019-04-20T07:50:31.760Z,23.53
2019-04-20T07:52:51.103Z,23.59
2019-04-20T07:55:40.542Z,23.64
2019-04-20T07:57:55.120Z,23.60
2019-04-20T08:03:03.056Z,23.46
2019-04-20T08:05:19.616Z,23.58
2019-04-20T08:07:47.474Z,23.07
2019-04-20T08:10:09.987Z,22.94
2019-04-20T08:13:01.924Z,23.01
2019-04-20T08:15:36.467Z,23.12
2019-04-20T08:17:54.006Z,23.13
2019-04-20T08:20:21.742Z,23.23
2019-04-20T08:22:53.132Z,23.49
2019-04-20T08:25:08.318Z,23.93
2019-04-20T08:27:25.800Z,24.66
2019-04-20T08:30:03.472Z,24.65
2019-04-20T08:32:37.822Z,24.31
2019-04-20T08:35:18.539Z,24.16
2019-04-20T08:37:38.656Z,24.94
2019-04-20T08:40:15.017Z,24.93
2019-04-20T08:42:37.862Z,24.69
2019-04-20T08:45:07.245Z,24.94
2019-04-20T08:47:51.407Z,25.24
2019-04-20T08:50:09.467Z,25.24
2019-04-20T08:52:48.329Z,24.79
2019-04-20T08:55:02.414Z,23.92
2019-04-20T08:57:09.107Z,23.67
2019-04-20T08:59:40.144Z,23.15
2019-04-20T09:02:11.743Z,22.99
2019-04-20T09:04:45.090Z,22.50
2019-04-20T09:07:11.698Z,22.08
2019-04-20T09:09:52.720Z,22.09
2019-04-20T09:12:16.738Z,22.22
2019-04-20T09:14:30.829Z,22.25
2019-04-20T09:17:02.871Z,22.37
2019-04-20T09:19:37.956Z,22.44
2019-04-20T09:22:10.297Z,22.64
2019-04-20T09:24:44.645Z,22.85
2019-04-20T09:27:12.817Z,22.79
2019-04-20T09:29:33.444Z,22.72
2019-04-20T09:32:12.430Z,22.67
2019-04-20T09:34:42.669Z,22.48
2019-04-20T09:37:09.765Z,22.46
2019-04-20T09:39:27.167Z,22.59
2019-04-20T09:41:59.876Z,22.58
2019-04-20T09:44:15.577Z,22.76
2019-04-20T09:46:48.978Z,22.86
2019-04-20T09:49:20.073Z,22.85
2019-04-20T09:51:55.072Z,22.59
2019-04-20T09:54:27.031Z,22.33
2019-04-20T09:57:00.783Z,21.78
2019-04-20T09:59:26.597Z,21.61
2019-04-20T10:01:41.905Z,21.73
2019-04-20T10:04:03.529Z,21.85
2019-04-20T10:06:34.552Z,21.88
2019-04-20T10:09:01.881Z,22.04
2019-04-20T10:11:29.817Z,22.23
2019-04-20T10:13:56.905Z,22.07
2019-04-20T10:16:23.880Z,21.69
2019-04-20T10:18:53.588Z,21.51
2019-04-20T10:21:20.113Z,21.24
2019-04-20T10:23:48.237Z,20.55
2019-04-20T10:26:16.426Z,20.18
2019-04-20T10:28:43.793Z,20.12
2019-04-20T10:31:10.764Z,20.18
2019-04-20T10:33:37.708Z,20.15
2019-04-20T10:36:05.689Z,20.28
2019-04-20T10:38:34.766Z,20.24
2019-04-20T10:41:08.213Z,20.37
2019-04-20T10:43:30.217Z,20.19
2019-04-20T10:45:57.254Z,19.79
2019-04-20T10:48:24.113Z,19.59
2019-04-20T10:50:52.792Z,19.60
2019-04-20T10:53:21.842Z,19.74
2019-04-20T10:55:49.503Z,19.67
2019-04-20T10:58:17.700Z,19.74
2019-04-20T11:00:45.938Z,20.02
2019-04-20T11:03:13.595Z,20.12
2019-04-20T11:05:40.724Z,20.23
2019-04-20T11:08:08.509Z,20.12
2019-04-20T11:10:53.966Z,19.94
2019-04-20T11:13:05.352Z,19.89
2019-04-20T11:15:32.520Z,20.01
2019-04-20T11:17:59.687Z,20.27
2019-04-20T11:20:27.568Z,20.29
2019-04-20T11:22:56.011Z,20.29
2019-04-20T11:25:24.264Z,20.23
2019-04-20T11:27:52.263Z,20.55
2019-04-20T11:30:20.403Z,20.76
2019-04-20T11:32:48.431Z,20.76
2019-04-20T11:35:23.807Z,20.54
2019-04-20T11:37:44.890Z,20.53
2019-04-20T11:40:12.965Z,20.64
2019-04-20T11:42:39.981Z,20.74
2019-04-20T11:45:06.870Z,20.66
2019-04-20T11:47:33.755Z,20.73
2019-04-20T11:50:01.735Z,20.73
2019-04-20T11:52:33.215Z,20.82
2019-04-20T11:54:58.139Z,20.99
2019-04-20T11:57:25.446Z,21.21
2019-04-20T11:59:52.999Z,21.50
2019-04-20T12:02:29.102Z,21.27
2019-04-20T12:04:59.816Z,21.08
2019-04-20T12:07:17.435Z,21.07
2019-04-20T12:09:44.371Z,21.31
2019-04-20T12:12:24.364Z,21.12
2019-04-20T12:14:40.919Z,20.93
2019-04-20T12:17:08.018Z,20.76
2019-04-20T12:19:36.290Z,20.72
2019-04-20T12:22:05.580Z,21.74
2019-04-20T12:24:33.219Z,21.80
2019-04-20T12:27:01.261Z,21.47
2019-04-20T12:29:29.935Z,21.23
2019-04-20T12:32:00.050Z,20.99
2019-04-20T12:34:26.477Z,20.79
2019-04-20T12:36:53.491Z,20.63
2019-04-20T12:39:22.243Z,20.50
2019-04-20T12:41:53.606Z,20.43
2019-04-20T12:44:19.603Z,20.38
2019-04-20T12:46:47.799Z,20.41
2019-04-20T12:49:15.841Z,20.37
2019-04-20T12:51:50.740Z,20.48
2019-04-20T12:54:11.738Z,20.41
2019-04-20T12:56:38.704Z,20.36
2019-04-20T12:59:05.764Z,20.46
2019-04-20T13:01:33.327Z,20.38
2019-04-20T13:04:02.879Z,20.13
2019-04-20T13:06:30.067Z,19.68
2019-04-20T13:09:00.267Z,19.52
2019-04-20T13:11:26.691Z,19.20
2019-04-20T13:13:54.524Z,18.87
2019-04-20T13:16:22.623Z,18.90
2019-04-20T13:18:50.816Z,19.02
2019-04-20T13:21:19.024Z,19.22
2019-04-20T13:23:47.342Z,19.09
2019-04-20T13:26:15.658Z,18.71
2019-04-20T13:28:43.328Z,18.97
2019-04-20T13:31:11.530Z,18.52
2019-04-20T13:33:39.151Z,18.54
2019-04-20T13:36:08.130Z,18.41
2019-04-20T13:38:36.260Z,18.09
2019-04-20T13:41:04.081Z,18.23
2019-04-20T13:43:32.047Z,17.94
2019-04-20T13:46:00.762Z,17.74
2019-04-20T13:48:29.077Z,17.71
2019-04-20T13:50:56.135Z,17.71
2019-04-20T13:53:23.389Z,17.98
2019-04-20T13:55:50.680Z,18.10
2019-04-20T13:58:18.855Z,17.76
2019-04-20T14:00:50.357Z,17.44
2019-04-20T14:03:16.591Z,17.62
2019-04-20T14:05:44.699Z,17.53
2019-04-20T14:08:11.736Z,17.54
2019-04-20T14:10:39.675Z,17.47
2019-04-20T14:13:12.134Z,17.53
2019-04-20T14:15:35.664Z,17.91
2019-04-20T14:18:03.110Z,17.67
2019-04-20T14:20:29.997Z,17.33
2019-04-20T14:22:56.949Z,17.57
2019-04-20T14:25:24.901Z,17.66
2019-04-20T14:27:52.906Z,17.61
2019-04-20T14:30:21.143Z,17.56
2019-04-20T14:32:48.990Z,17.80
2019-04-20T14:35:16.753Z,17.54
2019-04-20T14:37:43.871Z,17.49
2019-04-20T14:40:12.514Z,17.41
2019-04-20T14:42:46.409Z,17.10
2019-04-20T14:45:08.937Z,16.94
2019-04-20T14:47:36.158Z,16.82
2019-04-20T14:50:03.433Z,16.68
2019-04-20T14:52:31.428Z,16.67
2019-04-20T14:54:59.521Z,16.56
2019-04-20T14:57:27.636Z,16.68
2019-04-20T14:59:55.918Z,16.79
2019-04-20T15:02:23.281Z,16.93
2019-04-20T15:04:50.535Z,17.11
2019-04-20T15:07:18.415Z,17.39
2019-04-20T15:09:46.698Z,17.59
2019-04-20T15:12:14.967Z,17.64
2019-04-20T15:14:42.740Z,17.45
2019-04-20T15:17:10.930Z,17.41
2019-04-20T15:19:39.106Z,17.27
2019-04-20T15:22:07.523Z,17.36
2019-04-20T15:24:35.607Z,17.41
2019-04-20T15:27:02.651Z,17.38
2019-04-20T15:29:30.532Z,17.42
2019-04-20T15:31:59.901Z,17.53
2019-04-20T15:34:26.951Z,17.50
2019-04-20T15:36:54.130Z,17.58
2019-04-20T15:39:21.097Z,17.54
2019-04-20T15:41:49.461Z,17.57
2019-04-20T15:44:17.527Z,17.36
2019-04-20T15:46:45.517Z,17.53
2019-04-20T15:49:13.608Z,17.48
2019-04-20T15:51:41.814Z,17.28
2019-04-20T15:54:09.515Z,17.62
2019-04-20T15:56:37.621Z,17.48
2019-04-20T15:59:04.621Z,17.60
2019-04-20T16:01:32.280Z,17.65
2019-04-20T16:03:59.404Z,17.66
2019-04-20T16:06:27.362Z,17.39
2019-04-20T16:08:54.695Z,17.66
2019-04-20T16:11:21.658Z,18.38
2019-04-20T16:13:53.405Z,18.87
2019-04-20T16:16:17.597Z,19.54
2019-04-20T16:18:45.222Z,19.15
2019-04-20T16:21:20.928Z,18.93
2019-04-20T16:23:43.312Z,18.53
2019-04-20T16:26:11.403Z,18.50
2019-04-20T16:28:39.543Z,18.32
2019-04-20T16:31:08.733Z,18.23
2019-04-20T16:33:35.452Z,18.21
2019-04-20T16:36:04.751Z,18.34
2019-04-20T16:38:33.098Z,17.93
2019-04-20T16:41:00.141Z,17.70
2019-04-20T16:43:33.934Z,17.87
2019-04-20T16:45:55.652Z,18.07
2019-04-20T16:48:22.576Z,18.03
2019-04-20T16:50:49.525Z,18.06
2019-04-20T16:53:17.064Z,18.08
2019-04-20T16:55:45.195Z,18.04
2019-04-20T16:58:13.375Z,18.09
2019-04-20T17:00:41.223Z,18.03
2019-04-20T17:03:09.092Z,17.89
2019-04-20T17:05:37.029Z,17.96
2019-04-20T17:08:04.911Z,17.90
2019-04-20T17:10:32.745Z,17.94
2019-04-20T17:12:59.978Z,18.01
2019-04-20T17:15:27.650Z,18.30
2019-04-20T17:17:56.713Z,18.22
2019-04-20T17:20:25.229Z,18.29
2019-04-20T17:22:52.024Z,18.17
2019-04-20T17:25:19.719Z,18.14
2019-04-20T17:27:46.918Z,18.24
2019-04-20T17:30:17.959Z,18.30
2019-04-20T17:32:43.521Z,18.44
2019-04-20T17:35:23.228Z,18.39
2019-04-20T17:37:43.127Z,18.36
2019-04-20T17:40:30.027Z,18.36
2019-04-20T17:42:50.768Z,18.34
2019-04-20T17:45:12.328Z,18.37
2019-04-20T17:47:52.846Z,18.07
2019-04-20T17:50:20.214Z,17.63
2019-04-20T17:52:51.076Z,17.34
2019-04-20T17:55:01.354Z,17.15
2019-04-20T17:57:29.566Z,17.07
2019-04-20T18:00:00.427Z,17.11
2019-04-20T18:02:45.963Z,17.13
2019-04-20T18:05:20.123Z,17.08
2019-04-20T18:08:06.399Z,17.14
2019-04-20T18:10:11.499Z,17.16
2019-04-20T18:12:27.020Z,17.23
2019-04-20T18:15:10.325Z,17.30
2019-04-20T18:17:32.109Z,17.53
2019-04-20T18:19:47.153Z,17.61
2019-04-20T18:22:14.208Z,17.76
2019-04-20T18:25:01.828Z,17.90
2019-04-20T18:27:31.735Z,18.06
2019-04-20T18:29:59.879Z,18.35
2019-04-20T18:32:09.291Z,18.71
2019-04-20T18:34:36.358Z,18.95
2019-04-20T18:37:06.464Z,19.22
2019-04-20T18:39:37.424Z,19.46
2019-04-20T18:42:09.994Z,19.70
2019-04-20T18:44:46.133Z,19.79
2019-04-20T18:47:18.165Z,20.04
2019-04-20T18:49:43.067Z,20.36
2019-04-20T18:51:56.030Z,20.55
2019-04-20T18:54:27.709Z,20.75
2019-04-20T18:56:53.333Z,20.89
2019-04-20T18:59:23.444Z,21.17
2019-04-20T19:01:48.934Z,21.40
2019-04-20T19:04:17.554Z,21.46
2019-04-20T19:06:45.926Z,21.75
2019-04-20T19:09:21.611Z,21.81
2019-04-20T19:11:52.540Z,21.85
2019-04-20T19:14:21.244Z,21.91
2019-04-20T19:16:59.721Z,22.03
2019-04-20T19:19:22.038Z,22.07
2019-04-20T19:21:41.263Z,22.12
2019-04-20T19:24:12.639Z,22.07
2019-04-20T19:26:47.899Z,21.94
2019-04-20T19:29:15.642Z,21.71
2019-04-20T19:31:57.357Z,21.68
2019-04-20T19:34:26.556Z,21.74
2019-04-20T19:36:43.450Z,21.92
2019-04-20T19:39:19.891Z,21.94
2019-04-20T19:41:44.320Z,21.95
2019-04-20T19:44:13.127Z,22.04
2019-04-20T19:47:07.702Z,22.10
2019-04-20T19:49:17.424Z,22.21
2019-04-20T19:51:55.372Z,22.32
2019-04-20T19:54:20.483Z,22.40
2019-04-20T19:56:42.634Z,22.44
2019-04-20T19:59:09.572Z,22.35
2019-04-20T20:01:25.172Z,22.31
2019-04-20T20:03:56.294Z,22.08
2019-04-20T20:06:29.193Z,21.77
2019-04-20T20:08:55.755Z,21.54
2019-04-20T20:11:29.886Z,21.32
2019-04-20T20:13:53.074Z,21.61
2019-04-20T20:16:25.038Z,21.46
2019-04-20T20:18:58.674Z,21.57
2019-04-20T20:21:27.287Z,21.48
2019-04-20T20:23:45.927Z,21.80
2019-04-20T20:26:23.046Z,22.31
2019-04-20T20:28:47.650Z,22.50
2019-04-20T20:31:21.819Z,22.63
2019-04-20T20:33:56.483Z,22.71
2019-04-20T20:36:12.763Z,22.93
2019-04-20T20:38:39.990Z,22.86
2019-04-20T20:41:15.127Z,22.79
2019-04-20T20:43:52.315Z,22.89
2019-04-20T20:46:18.564Z,22.92
2019-04-20T20:48:48.173Z,23.11
2019-04-20T20:51:15.328Z,23.18
2019-04-20T20:53:42.837Z,23.14
2019-04-20T20:56:06.561Z,23.10
2019-04-20T20:58:43.304Z,23.05
2019-04-20T21:01:06.782Z,23.15
2019-04-20T21:03:32.275Z,22.82
2019-04-20T21:05:55.589Z,22.78
2019-04-20T21:08:23.820Z,22.82
2019-04-20T21:10:51.059Z,22.98
2019-04-20T21:13:19.223Z,22.95
2019-04-20T21:15:54.149Z,23.05
2019-04-20T21:18:39.378Z,23.08
2019-04-20T21:21:01.004Z,23.24
2019-04-20T21:23:28.312Z,23.34
2019-04-20T21:25:47.612Z,23.59
2019-04-20T21:28:10.802Z,23.76
2019-04-20T21:30:42.847Z,23.88
2019-04-20T21:33:07.881Z,24.14
2019-04-20T21:35:38.118Z,24.18
2019-04-20T21:38:07.964Z,24.31
2019-04-20T21:40:39.487Z,24.50
2019-04-20T21:43:05.587Z,24.67
2019-04-20T21:45:35.336Z,24.88
2019-04-20T21:48:03.464Z,25.19
2019-04-20T21:50:52.321Z,25.28
2019-04-20T21:53:04.767Z,25.21
2019-04-20T21:55:25.946Z,25.37
2019-04-20T21:57:55.376Z,25.58
2019-04-20T22:00:27.192Z,25.47
2019-04-20T22:02:57.581Z,25.52
2019-04-20T22:05:21.176Z,25.54
2019-04-20T22:07:48.466Z,25.74
2019-04-20T22:10:19.024Z,25.79
2019-04-20T22:12:49.007Z,25.84
2019-04-20T22:15:19.718Z,26.02
2019-04-20T22:17:42.694Z,26.00
2019-04-20T22:20:20.063Z,26.30
2019-04-20T22:22:53.272Z,26.42
2019-04-20T22:25:30.718Z,26.63
2019-04-20T22:27:37.507Z,26.68
2019-04-20T22:30:04.378Z,26.83
2019-04-20T22:32:32.265Z,26.79
2019-04-20T22:35:03.072Z,26.95
2019-04-20T22:37:30.120Z,27.07
2019-04-20T22:39:57.960Z,27.08
2019-04-20T22:42:26.104Z,27.15
2019-04-20T22:44:56.608Z,27.17
2019-04-20T22:47:28.166Z,27.30
2019-04-20T22:50:12.677Z,27.45
2019-04-20T22:52:38.060Z,27.61
2019-04-20T22:55:11.675Z,27.76
2019-04-20T22:57:31.639Z,27.73
2019-04-20T22:59:56.946Z,27.76
2019-04-20T23:02:16.513Z,27.86
2019-04-20T23:04:44.682Z,27.96
2019-04-20T23:07:12.810Z,28.11
2019-04-20T23:09:50.322Z,28.15
2019-04-20T23:12:13.427Z,28.20
2019-04-20T23:14:38.273Z,28.21
2019-04-20T23:17:06.333Z,28.16
2019-04-20T23:19:42.876Z,28.19
2019-04-20T23:22:05.266Z,28.27
2019-04-20T23:24:31.053Z,28.38
2019-04-20T23:26:59.466Z,28.47
2019-04-20T23:29:31.439Z,28.48
2019-04-20T23:32:02.438Z,28.49
2019-04-20T23:34:28.467Z,28.63
2019-04-20T23:36:54.787Z,28.61
2019-04-20T23:39:24.684Z,28.57
2019-04-20T23:41:58.002Z,28.57
2019-04-20T23:44:19.338Z,28.58
2019-04-20T23:46:47.368Z,28.56
2019-04-20T23:49:23.242Z,28.59
2019-04-20T23:52:08.575Z,28.64
2019-04-20T23:54:18.654Z,28.65
2019-04-20T23:56:41.665Z,28.61
2019-04-20T23:59:08.667Z,28.59
